sensor_id;sensor_type;location;lat;lon;timestamp;P1;durP1;ratioP1;P2;durP2;ratioP2
11338;SDS011;5724;42.684;23.252;2023-07-30T00:00:37;2.88;;;2.70;;
11338;SDS011;5724;42.684;23.252;2023-07-30T00:03:03;2.88;;;2.63;;
11338;SDS011;5724;42.684;23.252;2023-07-30T00:05:28;2.72;;;2.63;;
11338;SDS011;5724;42.684;23.252;2023-07-30T00:07:54;2.60;;;2.40;;
11338;SDS011;5724;42.684;23.252;2023-07-30T00:10:19;2.63;;;2.53;;
11338;SDS011;5724;42.684;23.252;2023-07-30T00:12:45;3.08;;;2.88;;
11338;SDS011;5724;42.684;23.252;2023-07-30T00:15:11;2.50;;;2.40;;
11338;SDS011;5724;42.684;23.252;2023-07-30T00:17:38;2.30;;;2.20;;
11338;SDS011;5724;42.684;23.252;2023-07-30T00:20:04;2.47;;;2.28;;
11338;SDS011;5724;42.684;23.252;2023-07-30T00:22:30;2.55;;;2.45;;
11338;SDS011;5724;42.684;23.252;2023-07-30T00:24:56;3.33;;;2.30;;
11338;SDS011;5724;42.684;23.252;2023-07-30T00:27:21;2.78;;;2.58;;
11338;SDS011;5724;42.684;23.252;2023-07-30T00:29:46;2.63;;;2.42;;
11338;SDS011;5724;42.684;23.252;2023-07-30T00:32:12;2.60;;;2.50;;
11338;SDS011;5724;42.684;23.252;2023-07-30T00:34:40;2.65;;;2.55;;
11338;SDS011;5724;42.684;23.252;2023-07-30T00:37:06;2.53;;;2.42;;
11338;SDS011;5724;42.684;23.252;2023-07-30T00:39:31;2.47;;;2.28;;
11338;SDS011;5724;42.684;23.252;2023-07-30T00:41:57;2.47;;;2.38;;
11338;SDS011;5724;42.684;23.252;2023-07-30T00:44:22;3.20;;;2.40;;
11338;SDS011;5724;42.684;23.252;2023-07-30T00:46:48;2.55;;;2.45;;
11338;SDS011;5724;42.684;23.252;2023-07-30T00:49:14;2.72;;;2.63;;
11338;SDS011;5724;42.684;23.252;2023-07-30T00:51:39;2.95;;;2.63;;
11338;SDS011;5724;42.684;23.252;2023-07-30T00:54:06;3.33;;;3.22;;
11338;SDS011;5724;42.684;23.252;2023-07-30T00:56:31;3.58;;;2.92;;
11338;SDS011;5724;42.684;23.252;2023-07-30T00:58:57;3.08;;;2.58;;
11338;SDS011;5724;42.684;23.252;2023-07-30T01:01:23;3.28;;;2.92;;
11338;SDS011;5724;42.684;23.252;2023-07-30T01:03:49;3.08;;;2.88;;
11338;SDS011;5724;42.684;23.252;2023-07-30T01:06:15;2.95;;;2.75;;
11338;SDS011;5724;42.684;23.252;2023-07-30T01:08:40;2.83;;;2.63;;
11338;SDS011;5724;42.684;23.252;2023-07-30T01:11:06;2.72;;;2.63;;
11338;SDS011;5724;42.684;23.252;2023-07-30T01:13:33;2.42;;;2.33;;
11338;SDS011;5724;42.684;23.252;2023-07-30T01:16:00;4.38;;;3.10;;
11338;SDS011;5724;42.684;23.252;2023-07-30T01:18:25;3.00;;;2.90;;
11338;SDS011;5724;42.684;23.252;2023-07-30T01:20:57;3.17;;;2.90;;
11338;SDS011;5724;42.684;23.252;2023-07-30T01:23:23;3.58;;;3.38;;
11338;SDS011;5724;42.684;23.252;2023-07-30T01:25:49;3.30;;;3.10;;
11338;SDS011;5724;42.684;23.252;2023-07-30T01:28:25;4.22;;;3.35;;
11338;SDS011;5724;42.684;23.252;2023-07-30T01:30:52;3.47;;;3.17;;
11338;SDS011;5724;42.684;23.252;2023-07-30T01:33:19;5.00;;;3.03;;
11338;SDS011;5724;42.684;23.252;2023-07-30T01:35:45;3.08;;;2.80;;
11338;SDS011;5724;42.684;23.252;2023-07-30T01:38:10;3.00;;;2.80;;
11338;SDS011;5724;42.684;23.252;2023-07-30T01:40:37;3.55;;;3.25;;
11338;SDS011;5724;42.684;23.252;2023-07-30T01:43:03;3.80;;;3.50;;
11338;SDS011;5724;42.684;23.252;2023-07-30T01:45:29;3.50;;;3.20;;
11338;SDS011;5724;42.684;23.252;2023-07-30T01:47:54;3.33;;;3.15;;
11338;SDS011;5724;42.684;23.252;2023-07-30T01:50:20;3.60;;;3.40;;
11338;SDS011;5724;42.684;23.252;2023-07-30T01:52:45;3.42;;;3.22;;
11338;SDS011;5724;42.684;23.252;2023-07-30T01:55:11;3.60;;;3.08;;
11338;SDS011;5724;42.684;23.252;2023-07-30T01:57:37;2.78;;;2.67;;
11338;SDS011;5724;42.684;23.252;2023-07-30T02:00:02;3.00;;;2.90;;
11338;SDS011;5724;42.684;23.252;2023-07-30T02:02:28;2.72;;;2.63;;
11338;SDS011;5724;42.684;23.252;2023-07-30T02:04:54;2.95;;;2.85;;
11338;SDS011;5724;42.684;23.252;2023-07-30T02:07:19;3.00;;;2.70;;
11338;SDS011;5724;42.684;23.252;2023-07-30T02:09:45;3.17;;;2.70;;
11338;SDS011;5724;42.684;23.252;2023-07-30T02:12:10;4.80;;;3.40;;
11338;SDS011;5724;42.684;23.252;2023-07-30T02:14:36;3.10;;;2.90;;
11338;SDS011;5724;42.684;23.252;2023-07-30T02:17:01;3.00;;;2.80;;
11338;SDS011;5724;42.684;23.252;2023-07-30T02:19:27;2.80;;;2.60;;
11338;SDS011;5724;42.684;23.252;2023-07-30T02:21:52;2.88;;;2.78;;
11338;SDS011;5724;42.684;23.252;2023-07-30T02:24:18;3.00;;;2.90;;
11338;SDS011;5724;42.684;23.252;2023-07-30T02:26:43;3.28;;;3.08;;
11338;SDS011;5724;42.684;23.252;2023-07-30T02:29:08;3.30;;;3.00;;
11338;SDS011;5724;42.684;23.252;2023-07-30T02:31:34;3.38;;;3.17;;
11338;SDS011;5724;42.684;23.252;2023-07-30T02:33:59;3.15;;;3.05;;
11338;SDS011;5724;42.684;23.252;2023-07-30T02:36:25;4.20;;;2.80;;
11338;SDS011;5724;42.684;23.252;2023-07-30T02:38:50;2.70;;;2.50;;
11338;SDS011;5724;42.684;23.252;2023-07-30T02:41:16;3.05;;;2.80;;
11338;SDS011;5724;42.684;23.252;2023-07-30T02:43:41;6.22;;;3.28;;
11338;SDS011;5724;42.684;23.252;2023-07-30T02:46:07;3.25;;;2.95;;
11338;SDS011;5724;42.684;23.252;2023-07-30T02:48:32;3.05;;;2.92;;
11338;SDS011;5724;42.684;23.252;2023-07-30T02:50:58;3.92;;;3.03;;
11338;SDS011;5724;42.684;23.252;2023-07-30T02:53:23;3.05;;;2.83;;
11338;SDS011;5724;42.684;23.252;2023-07-30T02:55:49;3.67;;;3.20;;
11338;SDS011;5724;42.684;23.252;2023-07-30T02:58:14;3.25;;;2.95;;
11338;SDS011;5724;42.684;23.252;2023-07-30T03:00:40;3.35;;;3.17;;
11338;SDS011;5724;42.684;23.252;2023-07-30T03:03:05;4.47;;;3.00;;
11338;SDS011;5724;42.684;23.252;2023-07-30T03:05:31;3.47;;;3.15;;
11338;SDS011;5724;42.684;23.252;2023-07-30T03:07:56;4.90;;;3.00;;
11338;SDS011;5724;42.684;23.252;2023-07-30T03:10:21;3.10;;;3.00;;
11338;SDS011;5724;42.684;23.252;2023-07-30T03:12:47;4.10;;;3.15;;
11338;SDS011;5724;42.684;23.252;2023-07-30T03:15:12;3.40;;;3.10;;
11338;SDS011;5724;42.684;23.252;2023-07-30T03:17:38;3.28;;;3.05;;
11338;SDS011;5724;42.684;23.252;2023-07-30T03:20:03;3.42;;;3.22;;
11338;SDS011;5724;42.684;23.252;2023-07-30T03:22:29;3.33;;;3.13;;
11338;SDS011;5724;42.684;23.252;2023-07-30T03:24:55;3.28;;;3.08;;
11338;SDS011;5724;42.684;23.252;2023-07-30T03:27:20;3.03;;;2.83;;
11338;SDS011;5724;42.684;23.252;2023-07-30T03:29:46;3.25;;;3.15;;
11338;SDS011;5724;42.684;23.252;2023-07-30T03:32:11;3.30;;;3.00;;
11338;SDS011;5724;42.684;23.252;2023-07-30T03:34:37;3.90;;;3.45;;
11338;SDS011;5724;42.684;23.252;2023-07-30T03:37:02;4.20;;;3.42;;
11338;SDS011;5724;42.684;23.252;2023-07-30T03:39:28;3.65;;;3.28;;
11338;SDS011;5724;42.684;23.252;2023-07-30T03:41:53;3.17;;;2.95;;
11338;SDS011;5724;42.684;23.252;2023-07-30T03:44:19;3.33;;;3.13;;
11338;SDS011;5724;42.684;23.252;2023-07-30T03:46:44;3.50;;;3.30;;
11338;SDS011;5724;42.684;23.252;2023-07-30T03:49:09;3.47;;;3.28;;
11338;SDS011;5724;42.684;23.252;2023-07-30T03:51:35;3.75;;;3.30;;
11338;SDS011;5724;42.684;23.252;2023-07-30T03:54:00;3.67;;;3.38;;
11338;SDS011;5724;42.684;23.252;2023-07-30T03:56:26;4.30;;;3.50;;
11338;SDS011;5724;42.684;23.252;2023-07-30T03:58:51;4.22;;;3.70;;
11338;SDS011;5724;42.684;23.252;2023-07-30T04:01:16;6.60;;;4.65;;
11338;SDS011;5724;42.684;23.252;2023-07-30T04:03:42;4.47;;;4.07;;
11338;SDS011;5724;42.684;23.252;2023-07-30T04:06:07;4.70;;;4.25;;
11338;SDS011;5724;42.684;23.252;2023-07-30T04:08:33;5.53;;;4.68;;
11338;SDS011;5724;42.684;23.252;2023-07-30T04:10:58;5.30;;;4.90;;
11338;SDS011;5724;42.684;23.252;2023-07-30T04:13:24;5.30;;;5.00;;
11338;SDS011;5724;42.684;23.252;2023-07-30T04:15:49;5.35;;;4.68;;
11338;SDS011;5724;42.684;23.252;2023-07-30T04:18:14;5.50;;;5.03;;
11338;SDS011;5724;42.684;23.252;2023-07-30T04:20:40;9.02;;;4.80;;
11338;SDS011;5724;42.684;23.252;2023-07-30T04:23:05;6.20;;;4.97;;
11338;SDS011;5724;42.684;23.252;2023-07-30T04:25:32;4.93;;;4.53;;
11338;SDS011;5724;42.684;23.252;2023-07-30T04:27:58;4.82;;;4.43;;
11338;SDS011;5724;42.684;23.252;2023-07-30T04:30:24;7.18;;;4.57;;
11338;SDS011;5724;42.684;23.252;2023-07-30T04:32:50;4.93;;;4.53;;
11338;SDS011;5724;42.684;23.252;2023-07-30T04:35:15;4.78;;;4.35;;
11338;SDS011;5724;42.684;23.252;2023-07-30T04:37:40;4.97;;;4.20;;
11338;SDS011;5724;42.684;23.252;2023-07-30T04:40:06;4.40;;;3.90;;
11338;SDS011;5724;42.684;23.252;2023-07-30T04:42:32;5.43;;;4.45;;
11338;SDS011;5724;42.684;23.252;2023-07-30T04:44:57;4.47;;;4.07;;
11338;SDS011;5724;42.684;23.252;2023-07-30T04:47:23;5.07;;;4.68;;
11338;SDS011;5724;42.684;23.252;2023-07-30T04:49:48;5.80;;;3.97;;
11338;SDS011;5724;42.684;23.252;2023-07-30T04:52:14;4.90;;;4.60;;
11338;SDS011;5724;42.684;23.252;2023-07-30T04:54:39;5.22;;;4.53;;
11338;SDS011;5724;42.684;23.252;2023-07-30T04:57:05;4.50;;;4.10;;
11338;SDS011;5724;42.684;23.252;2023-07-30T04:59:30;4.68;;;3.90;;
11338;SDS011;5724;42.684;23.252;2023-07-30T05:01:58;4.30;;;4.10;;
11338;SDS011;5724;42.684;23.252;2023-07-30T05:04:24;4.85;;;4.55;;
11338;SDS011;5724;42.684;23.252;2023-07-30T05:06:50;4.90;;;4.43;;
11338;SDS011;5724;42.684;23.252;2023-07-30T05:09:15;4.03;;;3.80;;
11338;SDS011;5724;42.684;23.252;2023-07-30T05:11:40;4.60;;;4.20;;
11338;SDS011;5724;42.684;23.252;2023-07-30T05:14:06;4.53;;;3.97;;
11338;SDS011;5724;42.684;23.252;2023-07-30T05:16:32;4.72;;;4.38;;
11338;SDS011;5724;42.684;23.252;2023-07-30T05:18:57;5.03;;;4.82;;
11338;SDS011;5724;42.684;23.252;2023-07-30T05:21:22;4.55;;;4.35;;
11338;SDS011;5724;42.684;23.252;2023-07-30T05:23:48;5.15;;;4.80;;
11338;SDS011;5724;42.684;23.252;2023-07-30T05:26:13;5.60;;;5.18;;
11338;SDS011;5724;42.684;23.252;2023-07-30T05:28:39;5.47;;;5.03;;
11338;SDS011;5724;42.684;23.252;2023-07-30T05:31:04;5.70;;;4.88;;
11338;SDS011;5724;42.684;23.252;2023-07-30T05:33:30;5.25;;;4.65;;
11338;SDS011;5724;42.684;23.252;2023-07-30T05:35:55;9.13;;;4.60;;
11338;SDS011;5724;42.684;23.252;2023-07-30T05:38:21;5.07;;;4.68;;
11338;SDS011;5724;42.684;23.252;2023-07-30T05:40:46;5.35;;;4.22;;
11338;SDS011;5724;42.684;23.252;2023-07-30T05:43:12;5.18;;;4.70;;
11338;SDS011;5724;42.684;23.252;2023-07-30T05:45:38;6.60;;;4.25;;
11338;SDS011;5724;42.684;23.252;2023-07-30T05:48:03;4.47;;;4.25;;
11338;SDS011;5724;42.684;23.252;2023-07-30T05:50:29;4.15;;;3.88;;
11338;SDS011;5724;42.684;23.252;2023-07-30T05:52:54;5.57;;;4.30;;
11338;SDS011;5724;42.684;23.252;2023-07-30T05:55:19;4.60;;;4.25;;
11338;SDS011;5724;42.684;23.252;2023-07-30T05:57:45;5.20;;;4.43;;
11338;SDS011;5724;42.684;23.252;2023-07-30T06:00:10;5.20;;;4.70;;
11338;SDS011;5724;42.684;23.252;2023-07-30T06:02:36;4.97;;;4.60;;
11338;SDS011;5724;42.684;23.252;2023-07-30T06:05:02;5.18;;;4.88;;
11338;SDS011;5724;42.684;23.252;2023-07-30T06:07:27;4.97;;;4.68;;
11338;SDS011;5724;42.684;23.252;2023-07-30T06:09:53;5.07;;;4.78;;
11338;SDS011;5724;42.684;23.252;2023-07-30T06:12:18;5.47;;;5.07;;
11338;SDS011;5724;42.684;23.252;2023-07-30T06:14:43;6.20;;;5.72;;
11338;SDS011;5724;42.684;23.252;2023-07-30T06:17:09;5.53;;;5.10;;
11338;SDS011;5724;42.684;23.252;2023-07-30T06:19:34;7.80;;;5.57;;
11338;SDS011;5724;42.684;23.252;2023-07-30T06:22:00;4.63;;;4.32;;
11338;SDS011;5724;42.684;23.252;2023-07-30T06:24:25;4.05;;;3.85;;
11338;SDS011;5724;42.684;23.252;2023-07-30T06:26:51;4.07;;;3.70;;
11338;SDS011;5724;42.684;23.252;2023-07-30T06:29:16;4.68;;;4.20;;
11338;SDS011;5724;42.684;23.252;2023-07-30T06:31:42;3.90;;;3.60;;
11338;SDS011;5724;42.684;23.252;2023-07-30T06:34:07;4.40;;;4.00;;
11338;SDS011;5724;42.684;23.252;2023-07-30T06:36:33;4.13;;;3.83;;
11338;SDS011;5724;42.684;23.252;2023-07-30T06:38:58;5.53;;;5.10;;
11338;SDS011;5724;42.684;23.252;2023-07-30T06:41:24;7.13;;;4.75;;
11338;SDS011;5724;42.684;23.252;2023-07-30T06:43:49;4.63;;;4.20;;
11338;SDS011;5724;42.684;23.252;2023-07-30T06:46:15;3.63;;;3.42;;
11338;SDS011;5724;42.684;23.252;2023-07-30T06:48:40;3.80;;;3.50;;
11338;SDS011;5724;42.684;23.252;2023-07-30T06:51:06;4.60;;;3.33;;
11338;SDS011;5724;42.684;23.252;2023-07-30T06:53:32;4.22;;;3.80;;
11338;SDS011;5724;42.684;23.252;2023-07-30T06:55:58;5.05;;;3.38;;
11338;SDS011;5724;42.684;23.252;2023-07-30T06:58:23;4.03;;;3.30;;
11338;SDS011;5724;42.684;23.252;2023-07-30T07:00:49;3.92;;;3.47;;
11338;SDS011;5724;42.684;23.252;2023-07-30T07:03:14;3.65;;;3.35;;
11338;SDS011;5724;42.684;23.252;2023-07-30T07:05:39;3.35;;;3.15;;
11338;SDS011;5724;42.684;23.252;2023-07-30T07:08:05;4.07;;;3.50;;
11338;SDS011;5724;42.684;23.252;2023-07-30T07:10:30;3.47;;;3.15;;
11338;SDS011;5724;42.684;23.252;2023-07-30T07:12:56;4.03;;;3.20;;
11338;SDS011;5724;42.684;23.252;2023-07-30T07:15:21;4.93;;;3.67;;
11338;SDS011;5724;42.684;23.252;2023-07-30T07:17:47;3.75;;;3.45;;
11338;SDS011;5724;42.684;23.252;2023-07-30T07:20:12;2.92;;;2.83;;
11338;SDS011;5724;42.684;23.252;2023-07-30T07:22:37;3.30;;;3.00;;
11338;SDS011;5724;42.684;23.252;2023-07-30T07:25:03;3.17;;;3.08;;
11338;SDS011;5724;42.684;23.252;2023-07-30T07:27:29;3.30;;;3.10;;
11338;SDS011;5724;42.684;23.252;2023-07-30T07:29:54;4.93;;;3.35;;
11338;SDS011;5724;42.684;23.252;2023-07-30T07:32:20;3.95;;;3.60;;
11338;SDS011;5724;42.684;23.252;2023-07-30T07:34:46;3.60;;;3.38;;
11338;SDS011;5724;42.684;23.252;2023-07-30T07:37:13;3.55;;;3.35;;
11338;SDS011;5724;42.684;23.252;2023-07-30T07:39:40;3.65;;;3.35;;
11338;SDS011;5724;42.684;23.252;2023-07-30T07:42:06;4.25;;;3.95;;
11338;SDS011;5724;42.684;23.252;2023-07-30T07:44:32;3.88;;;3.25;;
11338;SDS011;5724;42.684;23.252;2023-07-30T07:46:57;4.88;;;4.07;;
11338;SDS011;5724;42.684;23.252;2023-07-30T07:49:22;3.35;;;3.05;;
11338;SDS011;5724;42.684;23.252;2023-07-30T07:51:48;6.35;;;3.78;;
11338;SDS011;5724;42.684;23.252;2023-07-30T07:54:13;3.70;;;3.40;;
11338;SDS011;5724;42.684;23.252;2023-07-30T07:56:39;3.88;;;3.28;;
11338;SDS011;5724;42.684;23.252;2023-07-30T07:59:04;3.63;;;3.40;;
11338;SDS011;5724;42.684;23.252;2023-07-30T08:01:30;3.38;;;3.17;;
11338;SDS011;5724;42.684;23.252;2023-07-30T08:03:55;4.38;;;3.88;;
11338;SDS011;5724;42.684;23.252;2023-07-30T08:06:20;3.97;;;3.67;;
11338;SDS011;5724;42.684;23.252;2023-07-30T08:08:46;6.07;;;3.63;;
11338;SDS011;5724;42.684;23.252;2023-07-30T08:11:11;4.00;;;3.70;;
11338;SDS011;5724;42.684;23.252;2023-07-30T08:13:37;4.57;;;3.65;;
11338;SDS011;5724;42.684;23.252;2023-07-30T08:16:04;3.70;;;3.50;;
11338;SDS011;5724;42.684;23.252;2023-07-30T08:18:29;3.60;;;3.30;;
11338;SDS011;5724;42.684;23.252;2023-07-30T08:20:55;3.72;;;3.47;;
11338;SDS011;5724;42.684;23.252;2023-07-30T08:23:20;3.58;;;3.35;;
11338;SDS011;5724;42.684;23.252;2023-07-30T08:25:46;3.78;;;3.58;;
11338;SDS011;5724;42.684;23.252;2023-07-30T08:28:11;4.45;;;3.30;;
11338;SDS011;5724;42.684;23.252;2023-07-30T08:30:36;4.10;;;3.80;;
11338;SDS011;5724;42.684;23.252;2023-07-30T08:33:02;3.97;;;3.67;;
11338;SDS011;5724;42.684;23.252;2023-07-30T08:35:28;4.07;;;3.50;;
11338;SDS011;5724;42.684;23.252;2023-07-30T08:37:54;4.25;;;3.88;;
11338;SDS011;5724;42.684;23.252;2023-07-30T08:40:22;4.57;;;3.55;;
11338;SDS011;5724;42.684;23.252;2023-07-30T08:42:50;3.85;;;3.47;;
11338;SDS011;5724;42.684;23.252;2023-07-30T08:45:16;3.50;;;3.20;;
11338;SDS011;5724;42.684;23.252;2023-07-30T08:47:42;3.92;;;3.72;;
11338;SDS011;5724;42.684;23.252;2023-07-30T08:50:07;6.88;;;3.47;;
11338;SDS011;5724;42.684;23.252;2023-07-30T08:52:33;4.10;;;3.80;;
11338;SDS011;5724;42.684;23.252;2023-07-30T08:55:01;4.22;;;4.00;;
11338;SDS011;5724;42.684;23.252;2023-07-30T08:57:28;7.18;;;3.47;;
11338;SDS011;5724;42.684;23.252;2023-07-30T08:59:59;7.85;;;3.90;;
11338;SDS011;5724;42.684;23.252;2023-07-30T09:05:06;4.80;;;4.43;;
11338;SDS011;5724;42.684;23.252;2023-07-30T09:07:32;4.15;;;3.85;;
11338;SDS011;5724;42.684;23.252;2023-07-30T09:09:57;5.13;;;3.28;;
11338;SDS011;5724;42.684;23.252;2023-07-30T09:12:30;3.85;;;3.65;;
11338;SDS011;5724;42.684;23.252;2023-07-30T09:14:59;3.88;;;3.67;;
11338;SDS011;5724;42.684;23.252;2023-07-30T09:17:25;4.22;;;3.92;;
11338;SDS011;5724;42.684;23.252;2023-07-30T09:19:51;3.92;;;3.70;;
11338;SDS011;5724;42.684;23.252;2023-07-30T09:22:35;4.70;;;3.30;;
11338;SDS011;5724;42.684;23.252;2023-07-30T09:25:05;3.50;;;3.20;;
11338;SDS011;5724;42.684;23.252;2023-07-30T09:27:31;4.03;;;3.72;;
11338;SDS011;5724;42.684;23.252;2023-07-30T09:30:02;3.83;;;3.63;;
11338;SDS011;5724;42.684;23.252;2023-07-30T09:32:31;3.88;;;3.58;;
11338;SDS011;5724;42.684;23.252;2023-07-30T09:35:08;4.25;;;3.33;;
11338;SDS011;5724;42.684;23.252;2023-07-30T09:37:38;4.55;;;4.30;;
11338;SDS011;5724;42.684;23.252;2023-07-30T09:40:06;3.35;;;3.13;;
11338;SDS011;5724;42.684;23.252;2023-07-30T09:42:33;4.28;;;3.58;;
11338;SDS011;5724;42.684;23.252;2023-07-30T09:45:03;3.85;;;3.60;;
11338;SDS011;5724;42.684;23.252;2023-07-30T09:47:30;3.47;;;3.38;;
11338;SDS011;5724;42.684;23.252;2023-07-30T09:49:56;3.40;;;3.20;;
11338;SDS011;5724;42.684;23.252;2023-07-30T09:52:21;3.15;;;3.03;;
11338;SDS011;5724;42.684;23.252;2023-07-30T09:54:48;3.17;;;2.97;;
11338;SDS011;5724;42.684;23.252;2023-07-30T09:57:18;3.70;;;3.50;;
11338;SDS011;5724;42.684;23.252;2023-07-30T09:59:43;3.40;;;3.10;;
11338;SDS011;5724;42.684;23.252;2023-07-30T10:02:09;3.70;;;3.47;;
11338;SDS011;5724;42.684;23.252;2023-07-30T10:04:36;3.72;;;3.13;;
11338;SDS011;5724;42.684;23.252;2023-07-30T10:07:13;3.80;;;3.55;;
11338;SDS011;5724;42.684;23.252;2023-07-30T10:09:43;4.50;;;4.20;;
11338;SDS011;5724;42.684;23.252;2023-07-30T10:12:20;3.80;;;3.60;;
11338;SDS011;5724;42.684;23.252;2023-07-30T10:14:49;3.50;;;3.30;;
11338;SDS011;5724;42.684;23.252;2023-07-30T10:17:16;3.58;;;3.47;;
11338;SDS011;5724;42.684;23.252;2023-07-30T10:19:43;4.22;;;3.65;;
11338;SDS011;5724;42.684;23.252;2023-07-30T10:24:37;3.50;;;3.30;;
11338;SDS011;5724;42.684;23.252;2023-07-30T10:27:06;3.15;;;2.97;;
11338;SDS011;5724;42.684;23.252;2023-07-30T10:29:36;3.78;;;3.47;;
11338;SDS011;5724;42.684;23.252;2023-07-30T10:32:06;4.60;;;4.20;;
11338;SDS011;5724;42.684;23.252;2023-07-30T10:34:45;3.83;;;3.63;;
11338;SDS011;5724;42.684;23.252;2023-07-30T10:37:17;3.30;;;3.00;;
11338;SDS011;5724;42.684;23.252;2023-07-30T10:39:43;5.60;;;5.28;;
11338;SDS011;5724;42.684;23.252;2023-07-30T10:42:13;3.47;;;3.17;;
11338;SDS011;5724;42.684;23.252;2023-07-30T10:44:39;3.47;;;3.30;;
11338;SDS011;5724;42.684;23.252;2023-07-30T10:47:13;3.53;;;3.22;;
11338;SDS011;5724;42.684;23.252;2023-07-30T10:49:39;3.28;;;3.05;;
11338;SDS011;5724;42.684;23.252;2023-07-30T10:52:11;5.75;;;5.18;;
11338;SDS011;5724;42.684;23.252;2023-07-30T10:54:37;5.80;;;3.60;;
11338;SDS011;5724;42.684;23.252;2023-07-30T10:57:03;3.67;;;3.35;;
11338;SDS011;5724;42.684;23.252;2023-07-30T10:59:37;3.40;;;3.30;;
11338;SDS011;5724;42.684;23.252;2023-07-30T11:02:03;3.85;;;3.55;;
11338;SDS011;5724;42.684;23.252;2023-07-30T11:04:29;3.92;;;3.47;;
11338;SDS011;5724;42.684;23.252;2023-07-30T11:06:59;4.00;;;3.58;;
11338;SDS011;5724;42.684;23.252;2023-07-30T11:09:25;3.80;;;3.50;;
11338;SDS011;5724;42.684;23.252;2023-07-30T11:11:52;3.90;;;3.60;;
11338;SDS011;5724;42.684;23.252;2023-07-30T11:14:20;3.55;;;3.35;;
11338;SDS011;5724;42.684;23.252;2023-07-30T11:16:51;3.78;;;3.38;;
11338;SDS011;5724;42.684;23.252;2023-07-30T11:19:18;4.10;;;3.90;;
11338;SDS011;5724;42.684;23.252;2023-07-30T11:21:48;4.63;;;4.20;;
11338;SDS011;5724;42.684;23.252;2023-07-30T11:24:14;8.57;;;8.00;;
11338;SDS011;5724;42.684;23.252;2023-07-30T11:26:40;4.05;;;3.70;;
11338;SDS011;5724;42.684;23.252;2023-07-30T11:31:44;8.38;;;3.90;;
11338;SDS011;5724;42.684;23.252;2023-07-30T11:34:11;6.85;;;3.45;;
11338;SDS011;5724;42.684;23.252;2023-07-30T11:36:37;3.90;;;3.60;;
11338;SDS011;5724;42.684;23.252;2023-07-30T11:39:04;4.05;;;3.65;;
11338;SDS011;5724;42.684;23.252;2023-07-30T11:41:31;3.25;;;3.10;;
11338;SDS011;5724;42.684;23.252;2023-07-30T11:43:57;4.25;;;3.95;;
11338;SDS011;5724;42.684;23.252;2023-07-30T11:46:23;4.30;;;4.10;;
11338;SDS011;5724;42.684;23.252;2023-07-30T11:48:50;4.35;;;3.63;;
11338;SDS011;5724;42.684;23.252;2023-07-30T11:53:56;4.13;;;3.97;;
11338;SDS011;5724;42.684;23.252;2023-07-30T11:56:24;4.68;;;4.38;;
11338;SDS011;5724;42.684;23.252;2023-07-30T11:58:53;3.47;;;3.28;;
11338;SDS011;5724;42.684;23.252;2023-07-30T12:01:20;4.30;;;3.90;;
11338;SDS011;5724;42.684;23.252;2023-07-30T12:03:48;3.95;;;3.65;;
11338;SDS011;5724;42.684;23.252;2023-07-30T12:06:14;3.92;;;3.72;;
11338;SDS011;5724;42.684;23.252;2023-07-30T12:08:39;3.60;;;3.40;;
11338;SDS011;5724;42.684;23.252;2023-07-30T12:11:05;5.05;;;3.65;;
11338;SDS011;5724;42.684;23.252;2023-07-30T12:13:32;4.05;;;3.63;;
11338;SDS011;5724;42.684;23.252;2023-07-30T12:15:58;3.75;;;3.60;;
11338;SDS011;5724;42.684;23.252;2023-07-30T12:18:24;3.90;;;3.70;;
11338;SDS011;5724;42.684;23.252;2023-07-30T12:20:51;4.30;;;4.10;;
11338;SDS011;5724;42.684;23.252;2023-07-30T12:23:18;4.03;;;3.83;;
11338;SDS011;5724;42.684;23.252;2023-07-30T12:26:02;4.50;;;4.10;;
11338;SDS011;5724;42.684;23.252;2023-07-30T12:28:31;4.18;;;3.97;;
11338;SDS011;5724;42.684;23.252;2023-07-30T12:30:59;3.85;;;3.65;;
11338;SDS011;5724;42.684;23.252;2023-07-30T12:33:24;4.05;;;3.83;;
11338;SDS011;5724;42.684;23.252;2023-07-30T12:35:50;3.83;;;3.63;;
11338;SDS011;5724;42.684;23.252;2023-07-30T12:38:15;3.78;;;3.58;;
11338;SDS011;5724;42.684;23.252;2023-07-30T12:40:41;4.30;;;4.10;;
11338;SDS011;5724;42.684;23.252;2023-07-30T12:43:07;4.10;;;3.70;;
11338;SDS011;5724;42.684;23.252;2023-07-30T12:45:34;3.75;;;3.45;;
11338;SDS011;5724;42.684;23.252;2023-07-30T12:48:00;4.13;;;3.80;;
11338;SDS011;5724;42.684;23.252;2023-07-30T12:50:25;4.30;;;4.00;;
11338;SDS011;5724;42.684;23.252;2023-07-30T12:52:51;3.72;;;3.50;;
11338;SDS011;5724;42.684;23.252;2023-07-30T12:55:16;4.10;;;3.90;;
11338;SDS011;5724;42.684;23.252;2023-07-30T12:57:42;4.10;;;3.80;;
11338;SDS011;5724;42.684;23.252;2023-07-30T13:00:07;3.95;;;3.53;;
11338;SDS011;5724;42.684;23.252;2023-07-30T13:02:34;4.18;;;3.97;;
11338;SDS011;5724;42.684;23.252;2023-07-30T13:05:00;4.15;;;3.65;;
11338;SDS011;5724;42.684;23.252;2023-07-30T13:07:25;4.03;;;3.75;;
11338;SDS011;5724;42.684;23.252;2023-07-30T13:10:01;3.97;;;3.72;;
11338;SDS011;5724;42.684;23.252;2023-07-30T13:12:31;4.22;;;3.85;;
11338;SDS011;5724;42.684;23.252;2023-07-30T13:14:57;4.00;;;3.70;;
11338;SDS011;5724;42.684;23.252;2023-07-30T13:17:23;3.92;;;3.63;;
11338;SDS011;5724;42.684;23.252;2023-07-30T13:19:50;4.65;;;4.32;;
11338;SDS011;5724;42.684;23.252;2023-07-30T13:22:15;4.78;;;4.35;;
11338;SDS011;5724;42.684;23.252;2023-07-30T13:24:41;4.28;;;3.92;;
11338;SDS011;5724;42.684;23.252;2023-07-30T13:27:06;4.25;;;4.00;;
11338;SDS011;5724;42.684;23.252;2023-07-30T13:29:31;5.57;;;4.35;;
11338;SDS011;5724;42.684;23.252;2023-07-30T13:31:57;3.97;;;3.72;;
11338;SDS011;5724;42.684;23.252;2023-07-30T13:34:22;4.55;;;4.25;;
11338;SDS011;5724;42.684;23.252;2023-07-30T13:36:48;3.55;;;3.35;;
11338;SDS011;5724;42.684;23.252;2023-07-30T13:39:13;4.15;;;3.95;;
11338;SDS011;5724;42.684;23.252;2023-07-30T13:41:39;4.57;;;4.22;;
11338;SDS011;5724;42.684;23.252;2023-07-30T13:44:04;10.57;;;4.28;;
11338;SDS011;5724;42.684;23.252;2023-07-30T13:46:30;5.03;;;4.10;;
11338;SDS011;5724;42.684;23.252;2023-07-30T13:48:55;4.15;;;3.75;;
11338;SDS011;5724;42.684;23.252;2023-07-30T13:51:21;4.53;;;3.95;;
11338;SDS011;5724;42.684;23.252;2023-07-30T13:53:46;4.47;;;3.97;;
11338;SDS011;5724;42.684;23.252;2023-07-30T13:56:11;3.90;;;3.70;;
11338;SDS011;5724;42.684;23.252;2023-07-30T13:58:37;4.07;;;3.78;;
11338;SDS011;5724;42.684;23.252;2023-07-30T14:01:04;4.32;;;4.05;;
11338;SDS011;5724;42.684;23.252;2023-07-30T14:03:30;4.70;;;4.30;;
11338;SDS011;5724;42.684;23.252;2023-07-30T14:05:55;4.35;;;4.05;;
11338;SDS011;5724;42.684;23.252;2023-07-30T14:08:21;4.20;;;4.00;;
11338;SDS011;5724;42.684;23.252;2023-07-30T14:10:46;4.78;;;4.28;;
11338;SDS011;5724;42.684;23.252;2023-07-30T14:13:11;4.32;;;3.92;;
11338;SDS011;5724;42.684;23.252;2023-07-30T14:15:37;4.22;;;3.97;;
11338;SDS011;5724;42.684;23.252;2023-07-30T14:18:03;4.13;;;3.83;;
11338;SDS011;5724;42.684;23.252;2023-07-30T14:20:29;4.10;;;3.85;;
11338;SDS011;5724;42.684;23.252;2023-07-30T14:22:54;3.95;;;3.60;;
11338;SDS011;5724;42.684;23.252;2023-07-30T14:25:19;4.32;;;3.92;;
11338;SDS011;5724;42.684;23.252;2023-07-30T14:27:45;3.88;;;3.67;;
11338;SDS011;5724;42.684;23.252;2023-07-30T14:30:10;3.50;;;3.30;;
11338;SDS011;5724;42.684;23.252;2023-07-30T14:32:36;4.30;;;4.10;;
11338;SDS011;5724;42.684;23.252;2023-07-30T14:35:02;5.43;;;3.83;;
11338;SDS011;5724;42.684;23.252;2023-07-30T14:37:27;3.92;;;3.70;;
11338;SDS011;5724;42.684;23.252;2023-07-30T14:39:53;4.22;;;3.83;;
11338;SDS011;5724;42.684;23.252;2023-07-30T14:42:18;3.85;;;3.63;;
11338;SDS011;5724;42.684;23.252;2023-07-30T14:44:43;4.53;;;3.97;;
11338;SDS011;5724;42.684;23.252;2023-07-30T14:47:09;4.53;;;4.22;;
11338;SDS011;5724;42.684;23.252;2023-07-30T14:49:35;4.70;;;4.40;;
11338;SDS011;5724;42.684;23.252;2023-07-30T14:52:02;4.30;;;3.95;;